sensor_id;sensor_type;location;lat;lon;timestamp;P1;durP1;ratioP1;P2;durP2;ratioP2
44116;SDS011;29781;49.480;8.512;2022-10-13T00:00:40;26.15;;;15.77;;
44116;SDS011;29781;49.480;8.512;2022-10-13T00:03:06;27.17;;;15.13;;
44116;SDS011;29781;49.480;8.512;2022-10-13T00:05:33;24.70;;;15.93;;
44116;SDS011;29781;49.480;8.512;2022-10-13T00:07:59;25.63;;;15.38;;
44116;SDS011;29781;49.480;8.512;2022-10-13T00:10:25;25.48;;;15.70;;
44116;SDS011;29781;49.480;8.512;2022-10-13T00:12:51;26.73;;;15.13;;
44116;SDS011;29781;49.480;8.512;2022-10-13T00:15:18;26.38;;;15.52;;
44116;SDS011;29781;49.480;8.512;2022-10-13T00:17:43;22.70;;;15.32;;
44116;SDS011;29781;49.480;8.512;2022-10-13T00:20:10;24.75;;;15.57;;
44116;SDS011;29781;49.480;8.512;2022-10-13T00:22:36;29.00;;;15.10;;
44116;SDS011;29781;49.480;8.512;2022-10-13T00:25:02;21.10;;;14.50;;
44116;SDS011;29781;49.480;8.512;2022-10-13T00:27:27;27.42;;;15.20;;
44116;SDS011;29781;49.480;8.512;2022-10-13T00:29:53;23.42;;;14.82;;
44116;SDS011;29781;49.480;8.512;2022-10-13T00:32:19;25.02;;;15.13;;
44116;SDS011;29781;49.480;8.512;2022-10-13T00:34:44;22.30;;;14.50;;
44116;SDS011;29781;49.480;8.512;2022-10-13T00:37:10;19.20;;;13.80;;
44116;SDS011;29781;49.480;8.512;2022-10-13T00:39:36;23.55;;;14.65;;
44116;SDS011;29781;49.480;8.512;2022-10-13T00:42:02;26.52;;;14.80;;
44116;SDS011;29781;49.480;8.512;2022-10-13T00:47:20;22.55;;;14.15;;
44116;SDS011;29781;49.480;8.512;2022-10-13T00:49:47;21.90;;;14.35;;
44116;SDS011;29781;49.480;8.512;2022-10-13T00:52:13;25.65;;;14.25;;
44116;SDS011;29781;49.480;8.512;2022-10-13T00:54:41;18.67;;;13.65;;
44116;SDS011;29781;49.480;8.512;2022-10-13T00:57:08;23.20;;;14.13;;
44116;SDS011;29781;49.480;8.512;2022-10-13T00:59:34;22.77;;;13.82;;
44116;SDS011;29781;49.480;8.512;2022-10-13T01:02:02;24.23;;;14.18;;
44116;SDS011;29781;49.480;8.512;2022-10-13T01:04:35;21.83;;;13.23;;
44116;SDS011;29781;49.480;8.512;2022-10-13T01:07:04;21.27;;;13.23;;
44116;SDS011;29781;49.480;8.512;2022-10-13T01:09:31;24.95;;;14.35;;
44116;SDS011;29781;49.480;8.512;2022-10-13T01:14:35;25.80;;;14.95;;
44116;SDS011;29781;49.480;8.512;2022-10-13T01:17:17;25.25;;;15.82;;
44116;SDS011;29781;49.480;8.512;2022-10-13T01:31:14;20.70;;;13.15;;
44116;SDS011;29781;49.480;8.512;2022-10-13T01:34:02;23.38;;;14.45;;
44116;SDS011;29781;49.480;8.512;2022-10-13T01:39:33;21.02;;;14.23;;
44116;SDS011;29781;49.480;8.512;2022-10-13T01:42:18;27.52;;;13.77;;
44116;SDS011;29781;49.480;8.512;2022-10-13T01:44:49;23.07;;;14.80;;
44116;SDS011;29781;49.480;8.512;2022-10-13T01:47:18;22.77;;;13.93;;
44116;SDS011;29781;49.480;8.512;2022-10-13T01:49:46;21.88;;;14.68;;
44116;SDS011;29781;49.480;8.512;2022-10-13T01:52:14;21.95;;;13.75;;
44116;SDS011;29781;49.480;8.512;2022-10-13T01:54:46;18.38;;;13.15;;
44116;SDS011;29781;49.480;8.512;2022-10-13T01:57:30;23.15;;;14.30;;
44116;SDS011;29781;49.480;8.512;2022-10-13T02:00:04;17.05;;;12.10;;
44116;SDS011;29781;49.480;8.512;2022-10-13T02:02:39;22.27;;;14.43;;
44116;SDS011;29781;49.480;8.512;2022-10-13T02:07:39;17.75;;;12.27;;
44116;SDS011;29781;49.480;8.512;2022-10-13T02:10:13;23.80;;;13.27;;
44116;SDS011;29781;49.480;8.512;2022-10-13T02:12:56;20.80;;;13.50;;
44116;SDS011;29781;49.480;8.512;2022-10-13T02:15:30;26.58;;;14.57;;
44116;SDS011;29781;49.480;8.512;2022-10-13T02:18:18;23.48;;;14.07;;
44116;SDS011;29781;49.480;8.512;2022-10-13T02:20:48;23.98;;;14.65;;
44116;SDS011;29781;49.480;8.512;2022-10-13T02:23:15;25.65;;;13.85;;
44116;SDS011;29781;49.480;8.512;2022-10-13T02:25:42;24.27;;;14.20;;
44116;SDS011;29781;49.480;8.512;2022-10-13T02:28:08;21.88;;;14.57;;
44116;SDS011;29781;49.480;8.512;2022-10-13T02:30:37;21.30;;;14.07;;
44116;SDS011;29781;49.480;8.512;2022-10-13T02:33:03;20.38;;;13.63;;
44116;SDS011;29781;49.480;8.512;2022-10-13T02:35:29;26.30;;;14.15;;
44116;SDS011;29781;49.480;8.512;2022-10-13T02:37:55;23.52;;;15.05;;
44116;SDS011;29781;49.480;8.512;2022-10-13T02:40:20;20.27;;;14.70;;
44116;SDS011;29781;49.480;8.512;2022-10-13T02:42:46;20.10;;;14.30;;
44116;SDS011;29781;49.480;8.512;2022-10-13T02:45:12;27.92;;;16.48;;
44116;SDS011;29781;49.480;8.512;2022-10-13T02:47:37;25.33;;;16.65;;
44116;SDS011;29781;49.480;8.512;2022-10-13T02:50:03;26.90;;;17.05;;
44116;SDS011;29781;49.480;8.512;2022-10-13T02:52:29;27.65;;;17.50;;
44116;SDS011;29781;49.480;8.512;2022-10-13T02:54:55;43.05;;;19.55;;
44116;SDS011;29781;49.480;8.512;2022-10-13T02:57:20;50.67;;;21.90;;
44116;SDS011;29781;49.480;8.512;2022-10-13T02:59:46;38.00;;;19.58;;
44116;SDS011;29781;49.480;8.512;2022-10-13T03:02:12;40.17;;;18.38;;
44116;SDS011;29781;49.480;8.512;2022-10-13T03:04:38;39.03;;;18.65;;
44116;SDS011;29781;49.480;8.512;2022-10-13T03:07:04;26.85;;;16.65;;
44116;SDS011;29781;49.480;8.512;2022-10-13T03:09:30;23.98;;;15.88;;
44116;SDS011;29781;49.480;8.512;2022-10-13T03:11:56;28.63;;;16.00;;
44116;SDS011;29781;49.480;8.512;2022-10-13T03:14:21;26.08;;;16.45;;
44116;SDS011;29781;49.480;8.512;2022-10-13T03:16:47;22.08;;;15.85;;
44116;SDS011;29781;49.480;8.512;2022-10-13T03:19:12;19.48;;;15.25;;
44116;SDS011;29781;49.480;8.512;2022-10-13T03:21:38;21.17;;;14.77;;
44116;SDS011;29781;49.480;8.512;2022-10-13T03:24:04;19.88;;;15.18;;
44116;SDS011;29781;49.480;8.512;2022-10-13T03:26:30;22.30;;;15.60;;
44116;SDS011;29781;49.480;8.512;2022-10-13T03:28:56;22.17;;;14.32;;
44116;SDS011;29781;49.480;8.512;2022-10-13T03:31:22;23.05;;;15.07;;
44116;SDS011;29781;49.480;8.512;2022-10-13T03:33:48;22.25;;;15.95;;
44116;SDS011;29781;49.480;8.512;2022-10-13T03:36:13;30.15;;;15.10;;
44116;SDS011;29781;49.480;8.512;2022-10-13T03:38:39;21.10;;;15.65;;
44116;SDS011;29781;49.480;8.512;2022-10-13T03:41:06;29.67;;;15.98;;
44116;SDS011;29781;49.480;8.512;2022-10-13T03:43:34;20.25;;;15.30;;
44116;SDS011;29781;49.480;8.512;2022-10-13T03:46:00;20.23;;;15.23;;
44116;SDS011;29781;49.480;8.512;2022-10-13T03:48:28;29.73;;;15.98;;
44116;SDS011;29781;49.480;8.512;2022-10-13T03:50:54;21.48;;;16.40;;
44116;SDS011;29781;49.480;8.512;2022-10-13T03:53:20;20.55;;;15.77;;
44116;SDS011;29781;49.480;8.512;2022-10-13T03:55:53;22.02;;;15.60;;
44116;SDS011;29781;49.480;8.512;2022-10-13T03:58:20;31.75;;;16.05;;
44116;SDS011;29781;49.480;8.512;2022-10-13T04:00:48;23.35;;;15.48;;
44116;SDS011;29781;49.480;8.512;2022-10-13T04:03:14;25.08;;;15.73;;
44116;SDS011;29781;49.480;8.512;2022-10-13T04:05:40;21.48;;;15.55;;
44116;SDS011;29781;49.480;8.512;2022-10-13T04:08:06;23.75;;;14.98;;
44116;SDS011;29781;49.480;8.512;2022-10-13T04:10:32;21.52;;;15.68;;
44116;SDS011;29781;49.480;8.512;2022-10-13T04:12:58;25.73;;;16.50;;
44116;SDS011;29781;49.480;8.512;2022-10-13T04:15:23;24.35;;;16.48;;
44116;SDS011;29781;49.480;8.512;2022-10-13T04:17:49;25.80;;;17.50;;
44116;SDS011;29781;49.480;8.512;2022-10-13T04:20:15;31.63;;;19.17;;
44116;SDS011;29781;49.480;8.512;2022-10-13T04:22:41;31.30;;;19.40;;
44116;SDS011;29781;49.480;8.512;2022-10-13T04:25:07;34.45;;;19.88;;
44116;SDS011;29781;49.480;8.512;2022-10-13T04:27:33;34.70;;;20.58;;
44116;SDS011;29781;49.480;8.512;2022-10-13T04:30:03;38.08;;;21.67;;
44116;SDS011;29781;49.480;8.512;2022-10-13T04:32:30;38.85;;;23.15;;
44116;SDS011;29781;49.480;8.512;2022-10-13T04:34:56;42.42;;;23.08;;
44116;SDS011;29781;49.480;8.512;2022-10-13T04:37:22;42.63;;;23.35;;
44116;SDS011;29781;49.480;8.512;2022-10-13T04:39:48;45.40;;;23.23;;
44116;SDS011;29781;49.480;8.512;2022-10-13T04:42:13;42.05;;;24.23;;
44116;SDS011;29781;49.480;8.512;2022-10-13T04:44:39;46.40;;;24.67;;
44116;SDS011;29781;49.480;8.512;2022-10-13T04:47:05;41.78;;;22.35;;
44116;SDS011;29781;49.480;8.512;2022-10-13T04:49:31;57.42;;;22.80;;
44116;SDS011;29781;49.480;8.512;2022-10-13T04:51:56;40.60;;;22.35;;
44116;SDS011;29781;49.480;8.512;2022-10-13T04:54:22;46.92;;;24.02;;
44116;SDS011;29781;49.480;8.512;2022-10-13T04:56:48;45.47;;;24.95;;
44116;SDS011;29781;49.480;8.512;2022-10-13T04:59:13;63.17;;;24.17;;
44116;SDS011;29781;49.480;8.512;2022-10-13T05:01:39;44.58;;;22.92;;
44116;SDS011;29781;49.480;8.512;2022-10-13T05:04:05;48.78;;;24.02;;
44116;SDS011;29781;49.480;8.512;2022-10-13T05:06:32;39.85;;;22.70;;
44116;SDS011;29781;49.480;8.512;2022-10-13T05:09:00;41.60;;;21.77;;
44116;SDS011;29781;49.480;8.512;2022-10-13T05:11:26;93.25;;;25.10;;
44116;SDS011;29781;49.480;8.512;2022-10-13T05:13:53;44.00;;;24.17;;
44116;SDS011;29781;49.480;8.512;2022-10-13T05:16:20;40.85;;;23.80;;
44116;SDS011;29781;49.480;8.512;2022-10-13T05:18:46;49.63;;;23.05;;
44116;SDS011;29781;49.480;8.512;2022-10-13T05:21:16;31.10;;;18.67;;
44116;SDS011;29781;49.480;8.512;2022-10-13T05:23:43;40.45;;;18.25;;
44116;SDS011;29781;49.480;8.512;2022-10-13T05:26:13;22.48;;;16.45;;
44116;SDS011;29781;49.480;8.512;2022-10-13T05:28:41;22.35;;;15.95;;
44116;SDS011;29781;49.480;8.512;2022-10-13T05:31:14;24.75;;;15.80;;
44116;SDS011;29781;49.480;8.512;2022-10-13T05:33:41;27.50;;;15.18;;
44116;SDS011;29781;49.480;8.512;2022-10-13T05:36:08;20.73;;;15.35;;
44116;SDS011;29781;49.480;8.512;2022-10-13T05:38:36;19.95;;;15.55;;
44116;SDS011;29781;49.480;8.512;2022-10-13T05:41:05;22.83;;;16.17;;
44116;SDS011;29781;49.480;8.512;2022-10-13T05:43:32;24.02;;;16.35;;
44116;SDS011;29781;49.480;8.512;2022-10-13T05:45:59;23.65;;;16.17;;
44116;SDS011;29781;49.480;8.512;2022-10-13T05:48:25;24.20;;;15.95;;
44116;SDS011;29781;49.480;8.512;2022-10-13T05:50:51;27.05;;;16.55;;
44116;SDS011;29781;49.480;8.512;2022-10-13T05:53:17;21.02;;;15.90;;
44116;SDS011;29781;49.480;8.512;2022-10-13T05:55:42;24.38;;;17.08;;
44116;SDS011;29781;49.480;8.512;2022-10-13T05:58:08;22.67;;;16.80;;
44116;SDS011;29781;49.480;8.512;2022-10-13T06:00:34;22.25;;;16.30;;
44116;SDS011;29781;49.480;8.512;2022-10-13T06:03:04;24.52;;;16.73;;
44116;SDS011;29781;49.480;8.512;2022-10-13T06:05:32;26.23;;;16.92;;
44116;SDS011;29781;49.480;8.512;2022-10-13T06:07:58;29.35;;;17.40;;
44116;SDS011;29781;49.480;8.512;2022-10-13T06:10:24;26.83;;;18.30;;
44116;SDS011;29781;49.480;8.512;2022-10-13T06:12:50;27.60;;;18.35;;
44116;SDS011;29781;49.480;8.512;2022-10-13T06:15:16;29.45;;;19.00;;
44116;SDS011;29781;49.480;8.512;2022-10-13T06:17:42;28.90;;;18.90;;
44116;SDS011;29781;49.480;8.512;2022-10-13T06:20:08;27.13;;;18.75;;
44116;SDS011;29781;49.480;8.512;2022-10-13T06:22:36;29.17;;;18.65;;
44116;SDS011;29781;49.480;8.512;2022-10-13T06:25:03;34.22;;;21.50;;
44116;SDS011;29781;49.480;8.512;2022-10-13T06:27:30;42.28;;;26.00;;
44116;SDS011;29781;49.480;8.512;2022-10-13T06:29:56;46.50;;;25.80;;
44116;SDS011;29781;49.480;8.512;2022-10-13T06:32:22;51.03;;;27.65;;
44116;SDS011;29781;49.480;8.512;2022-10-13T06:34:48;46.22;;;26.50;;
44116;SDS011;29781;49.480;8.512;2022-10-13T06:37:14;45.10;;;24.88;;
44116;SDS011;29781;49.480;8.512;2022-10-13T06:39:39;36.75;;;22.02;;
44116;SDS011;29781;49.480;8.512;2022-10-13T06:42:06;37.00;;;22.40;;
44116;SDS011;29781;49.480;8.512;2022-10-13T06:44:32;33.60;;;21.20;;
44116;SDS011;29781;49.480;8.512;2022-10-13T06:46:57;38.00;;;20.80;;
44116;SDS011;29781;49.480;8.512;2022-10-13T06:49:24;30.20;;;19.88;;
44116;SDS011;29781;49.480;8.512;2022-10-13T06:51:50;29.80;;;18.77;;
44116;SDS011;29781;49.480;8.512;2022-10-13T06:54:16;29.80;;;18.20;;
44116;SDS011;29781;49.480;8.512;2022-10-13T06:56:41;29.20;;;17.77;;
44116;SDS011;29781;49.480;8.512;2022-10-13T06:59:07;29.05;;;17.70;;
44116;SDS011;29781;49.480;8.512;2022-10-13T07:01:33;28.55;;;19.13;;
44116;SDS011;29781;49.480;8.512;2022-10-13T07:03:59;26.75;;;18.48;;
44116;SDS011;29781;49.480;8.512;2022-10-13T07:06:24;29.38;;;18.23;;
44116;SDS011;29781;49.480;8.512;2022-10-13T07:08:50;27.73;;;18.15;;
44116;SDS011;29781;49.480;8.512;2022-10-13T07:11:16;27.88;;;18.63;;
44116;SDS011;29781;49.480;8.512;2022-10-13T07:13:42;29.50;;;18.88;;
44116;SDS011;29781;49.480;8.512;2022-10-13T07:16:09;40.42;;;20.08;;
44116;SDS011;29781;49.480;8.512;2022-10-13T07:18:35;35.88;;;17.33;;
44116;SDS011;29781;49.480;8.512;2022-10-13T07:21:01;31.30;;;19.98;;
44116;SDS011;29781;49.480;8.512;2022-10-13T07:23:27;30.67;;;18.90;;
44116;SDS011;29781;49.480;8.512;2022-10-13T07:25:54;30.17;;;18.85;;
44116;SDS011;29781;49.480;8.512;2022-10-13T07:28:23;28.05;;;18.08;;
44116;SDS011;29781;49.480;8.512;2022-10-13T07:30:50;27.05;;;18.35;;
44116;SDS011;29781;49.480;8.512;2022-10-13T07:33:16;33.40;;;19.92;;
44116;SDS011;29781;49.480;8.512;2022-10-13T07:35:42;29.08;;;19.27;;
44116;SDS011;29781;49.480;8.512;2022-10-13T07:38:08;27.25;;;17.67;;
44116;SDS011;29781;49.480;8.512;2022-10-13T07:40:34;28.15;;;18.05;;
44116;SDS011;29781;49.480;8.512;2022-10-13T07:42:59;35.58;;;19.58;;
44116;SDS011;29781;49.480;8.512;2022-10-13T07:45:26;30.30;;;19.77;;
44116;SDS011;29781;49.480;8.512;2022-10-13T07:47:52;30.27;;;19.30;;
44116;SDS011;29781;49.480;8.512;2022-10-13T07:50:17;33.40;;;21.00;;
44116;SDS011;29781;49.480;8.512;2022-10-13T07:52:44;41.30;;;21.85;;
44116;SDS011;29781;49.480;8.512;2022-10-13T07:55:10;30.95;;;21.92;;
44116;SDS011;29781;49.480;8.512;2022-10-13T07:57:35;34.35;;;20.77;;
44116;SDS011;29781;49.480;8.512;2022-10-13T08:00:01;33.45;;;20.08;;
44116;SDS011;29781;49.480;8.512;2022-10-13T08:02:30;28.63;;;19.50;;
44116;SDS011;29781;49.480;8.512;2022-10-13T08:04:56;30.65;;;19.02;;
44116;SDS011;29781;49.480;8.512;2022-10-13T08:07:22;28.00;;;18.27;;
44116;SDS011;29781;49.480;8.512;2022-10-13T08:09:48;25.10;;;16.58;;
44116;SDS011;29781;49.480;8.512;2022-10-13T08:12:13;30.05;;;18.05;;
44116;SDS011;29781;49.480;8.512;2022-10-13T08:14:39;31.30;;;18.15;;
44116;SDS011;29781;49.480;8.512;2022-10-13T08:17:05;25.60;;;16.75;;
44116;SDS011;29781;49.480;8.512;2022-10-13T08:19:31;26.30;;;17.50;;
44116;SDS011;29781;49.480;8.512;2022-10-13T08:21:57;26.30;;;18.42;;
44116;SDS011;29781;49.480;8.512;2022-10-13T08:24:22;26.38;;;18.20;;
44116;SDS011;29781;49.480;8.512;2022-10-13T08:26:48;33.15;;;17.58;;
44116;SDS011;29781;49.480;8.512;2022-10-13T08:29:15;25.13;;;16.17;;
44116;SDS011;29781;49.480;8.512;2022-10-13T08:31:41;26.58;;;17.23;;
44116;SDS011;29781;49.480;8.512;2022-10-13T08:34:07;25.23;;;16.85;;
44116;SDS011;29781;49.480;8.512;2022-10-13T08:36:33;26.92;;;17.83;;
44116;SDS011;29781;49.480;8.512;2022-10-13T08:38:59;26.58;;;17.45;;
44116;SDS011;29781;49.480;8.512;2022-10-13T08:43:56;30.80;;;17.70;;
44116;SDS011;29781;49.480;8.512;2022-10-13T08:46:52;27.98;;;17.42;;
44116;SDS011;29781;49.480;8.512;2022-10-13T08:49:32;31.27;;;19.27;;
44116;SDS011;29781;49.480;8.512;2022-10-13T08:51:58;48.85;;;19.85;;
44116;SDS011;29781;49.480;8.512;2022-10-13T08:54:28;25.90;;;18.40;;
44116;SDS011;29781;49.480;8.512;2022-10-13T08:56:54;27.23;;;19.38;;
44116;SDS011;29781;49.480;8.512;2022-10-13T08:59:19;31.67;;;18.95;;
44116;SDS011;29781;49.480;8.512;2022-10-13T09:01:46;27.40;;;17.27;;
44116;SDS011;29781;49.480;8.512;2022-10-13T09:04:34;30.95;;;16.83;;
44116;SDS011;29781;49.480;8.512;2022-10-13T09:09:36;27.00;;;16.63;;
44116;SDS011;29781;49.480;8.512;2022-10-13T09:12:02;25.90;;;16.38;;
44116;SDS011;29781;49.480;8.512;2022-10-13T09:14:33;24.08;;;16.10;;
44116;SDS011;29781;49.480;8.512;2022-10-13T09:17:19;30.48;;;16.55;;
44116;SDS011;29781;49.480;8.512;2022-10-13T09:30:29;22.95;;;16.17;;
44116;SDS011;29781;49.480;8.512;2022-10-13T09:36:18;28.10;;;18.35;;
44116;SDS011;29781;49.480;8.512;2022-10-13T09:38:26;30.38;;;16.63;;
44116;SDS011;29781;49.480;8.512;2022-10-13T09:40:57;30.10;;;17.77;;
44116;SDS011;29781;49.480;8.512;2022-10-13T09:46:11;26.90;;;17.33;;
44116;SDS011;29781;49.480;8.512;2022-10-13T09:48:49;32.90;;;18.52;;
44116;SDS011;29781;49.480;8.512;2022-10-13T09:51:36;30.67;;;18.00;;
44116;SDS011;29781;49.480;8.512;2022-10-13T09:54:05;30.10;;;18.27;;
44116;SDS011;29781;49.480;8.512;2022-10-13T09:56:50;26.73;;;17.77;;
44116;SDS011;29781;49.480;8.512;2022-10-13T09:59:33;27.98;;;18.50;;
44116;SDS011;29781;49.480;8.512;2022-10-13T10:02:17;28.92;;;18.70;;
44116;SDS011;29781;49.480;8.512;2022-10-13T10:04:55;29.98;;;19.10;;
44116;SDS011;29781;49.480;8.512;2022-10-13T10:07:26;30.17;;;18.98;;
44116;SDS011;29781;49.480;8.512;2022-10-13T10:09:59;28.35;;;19.08;;
44116;SDS011;29781;49.480;8.512;2022-10-13T10:12:36;30.25;;;17.45;;
44116;SDS011;29781;49.480;8.512;2022-10-13T10:15:15;31.17;;;18.50;;
44116;SDS011;29781;49.480;8.512;2022-10-13T10:17:50;25.85;;;18.25;;
44116;SDS011;29781;49.480;8.512;2022-10-13T10:26:01;29.35;;;18.98;;
44116;SDS011;29781;49.480;8.512;2022-10-13T10:34:34;29.15;;;17.95;;
44116;SDS011;29781;49.480;8.512;2022-10-13T10:45:41;25.95;;;15.85;;
44116;SDS011;29781;49.480;8.512;2022-10-13T10:51:09;26.63;;;16.83;;
44116;SDS011;29781;49.480;8.512;2022-10-13T10:56:30;33.05;;;15.77;;
44116;SDS011;29781;49.480;8.512;2022-10-13T10:59:10;23.20;;;15.98;;
44116;SDS011;29781;49.480;8.512;2022-10-13T11:04:35;26.02;;;16.95;;
44116;SDS011;29781;49.480;8.512;2022-10-13T11:07:11;26.27;;;16.17;;
44116;SDS011;29781;49.480;8.512;2022-10-13T11:17:34;28.05;;;17.90;;
44116;SDS011;29781;49.480;8.512;2022-10-13T11:20:46;32.85;;;20.10;;
44116;SDS011;29781;49.480;8.512;2022-10-13T11:25:42;31.98;;;21.17;;
44116;SDS011;29781;49.480;8.512;2022-10-13T11:30:57;33.50;;;20.75;;
44116;SDS011;29781;49.480;8.512;2022-10-13T11:33:50;31.35;;;20.38;;
44116;SDS011;29781;49.480;8.512;2022-10-13T11:36:38;29.73;;;20.25;;
44116;SDS011;29781;49.480;8.512;2022-10-13T11:41:57;30.13;;;20.02;;
44116;SDS011;29781;49.480;8.512;2022-10-13T11:55:53;34.30;;;20.58;;
44116;SDS011;29781;49.480;8.512;2022-10-13T12:00:50;33.03;;;18.42;;
44116;SDS011;29781;49.480;8.512;2022-10-13T12:03:26;31.13;;;18.05;;
44116;SDS011;29781;49.480;8.512;2022-10-13T12:05:54;29.20;;;18.38;;
44116;SDS011;29781;49.480;8.512;2022-10-13T12:08:40;33.20;;;20.80;;
44116;SDS011;29781;49.480;8.512;2022-10-13T12:11:14;33.13;;;20.67;;
44116;SDS011;29781;49.480;8.512;2022-10-13T12:13:47;31.20;;;19.88;;
44116;SDS011;29781;49.480;8.512;2022-10-13T12:16:13;32.08;;;18.95;;
44116;SDS011;29781;49.480;8.512;2022-10-13T12:18:39;31.40;;;20.15;;
44116;SDS011;29781;49.480;8.512;2022-10-13T12:21:12;33.30;;;19.88;;
44116;SDS011;29781;49.480;8.512;2022-10-13T12:23:41;29.60;;;18.48;;
44116;SDS011;29781;49.480;8.512;2022-10-13T12:26:11;27.98;;;18.75;;
44116;SDS011;29781;49.480;8.512;2022-10-13T12:31:19;30.92;;;17.77;;
44116;SDS011;29781;49.480;8.512;2022-10-13T12:33:53;25.55;;;17.08;;
44116;SDS011;29781;49.480;8.512;2022-10-13T12:36:25;20.80;;;15.82;;
44116;SDS011;29781;49.480;8.512;2022-10-13T12:38:55;26.50;;;17.08;;
44116;SDS011;29781;49.480;8.512;2022-10-13T12:41:25;26.38;;;17.17;;
44116;SDS011;29781;49.480;8.512;2022-10-13T12:43:56;23.83;;;16.73;;
44116;SDS011;29781;49.480;8.512;2022-10-13T12:49:05;24.63;;;14.98;;
44116;SDS011;29781;49.480;8.512;2022-10-13T12:51:32;23.23;;;16.63;;
44116;SDS011;29781;49.480;8.512;2022-10-13T12:54:04;25.20;;;16.45;;
44116;SDS011;29781;49.480;8.512;2022-10-13T12:56:32;27.58;;;18.08;;
44116;SDS011;29781;49.480;8.512;2022-10-13T12:58:57;25.45;;;17.52;;
44116;SDS011;29781;49.480;8.512;2022-10-13T13:01:33;26.50;;;17.83;;
44116;SDS011;29781;49.480;8.512;2022-10-13T13:04:01;26.40;;;17.05;;
44116;SDS011;29781;49.480;8.512;2022-10-13T13:06:55;28.33;;;17.05;;
44116;SDS011;29781;49.480;8.512;2022-10-13T13:09:25;27.30;;;18.00;;
44116;SDS011;29781;49.480;8.512;2022-10-13T13:14:36;26.70;;;17.63;;
44116;SDS011;29781;49.480;8.512;2022-10-13T13:17:05;25.58;;;17.13;;
44116;SDS011;29781;49.480;8.512;2022-10-13T13:19:48;23.95;;;17.13;;
44116;SDS011;29781;49.480;8.512;2022-10-13T13:22:16;28.25;;;16.67;;
44116;SDS011;29781;49.480;8.512;2022-10-13T13:24:42;29.85;;;17.90;;
44116;SDS011;29781;49.480;8.512;2022-10-13T13:29:43;30.88;;;17.48;;
44116;SDS011;29781;49.480;8.512;2022-10-13T13:32:11;25.40;;;18.08;;
44116;SDS011;29781;49.480;8.512;2022-10-13T13:34:40;26.35;;;17.10;;
44116;SDS011;29781;49.480;8.512;2022-10-13T13:37:11;31.38;;;16.80;;
44116;SDS011;29781;49.480;8.512;2022-10-13T13:39:39;28.20;;;18.10;;
44116;SDS011;29781;49.480;8.512;2022-10-13T13:42:07;25.98;;;17.98;;
44116;SDS011;29781;49.480;8.512;2022-10-13T13:44:36;33.20;;;19.08;;
44116;SDS011;29781;49.480;8.512;2022-10-13T13:47:04;27.95;;;18.17;;
44116;SDS011;29781;49.480;8.512;2022-10-13T13:49:33;33.03;;;18.13;;
44116;SDS011;29781;49.480;8.512;2022-10-13T13:51:59;22.25;;;16.67;;
44116;SDS011;29781;49.480;8.512;2022-10-13T13:54:25;27.85;;;17.70;;
44116;SDS011;29781;49.480;8.512;2022-10-13T13:56:51;27.10;;;18.77;;
44116;SDS011;29781;49.480;8.512;2022-10-13T13:59:16;30.08;;;18.25;;
44116;SDS011;29781;49.480;8.512;2022-10-13T14:01:42;26.33;;;17.70;;
44116;SDS011;29781;49.480;8.512;2022-10-13T14:04:08;34.63;;;18.48;;
44116;SDS011;29781;49.480;8.512;2022-10-13T14:06:35;32.15;;;20.60;;
44116;SDS011;29781;49.480;8.512;2022-10-13T14:09:02;26.30;;;18.38;;
44116;SDS011;29781;49.480;8.512;2022-10-13T14:11:28;25.65;;;18.00;;
44116;SDS011;29781;49.480;8.512;2022-10-13T14:13:54;34.05;;;17.48;;
44116;SDS011;29781;49.480;8.512;2022-10-13T14:16:22;25.27;;;17.33;;
44116;SDS011;29781;49.480;8.512;2022-10-13T14:18:47;33.85;;;19.27;;
44116;SDS011;29781;49.480;8.512;2022-10-13T14:21:13;33.65;;;18.23;;
44116;SDS011;29781;49.480;8.512;2022-10-13T14:23:39;32.28;;;18.63;;
44116;SDS011;29781;49.480;8.512;2022-10-13T14:26:09;38.38;;;19.02;;
44116;SDS011;29781;49.480;8.512;2022-10-13T14:28:35;28.77;;;18.30;;
44116;SDS011;29781;49.480;8.512;2022-10-13T14:31:03;35.33;;;19.23;;
44116;SDS011;29781;49.480;8.512;2022-10-13T14:33:30;25.85;;;17.48;;
44116;SDS011;29781;49.480;8.512;2022-10-13T14:35:59;30.08;;;17.75;;
44116;SDS011;29781;49.480;8.512;2022-10-13T14:38:25;28.30;;;17.95;;
44116;SDS011;29781;49.480;8.512;2022-10-13T14:40:51;39.08;;;18.20;;
44116;SDS011;29781;49.480;8.512;2022-10-13T14:43:17;25.75;;;16.55;;
44116;SDS011;29781;49.480;8.512;2022-10-13T14:45:42;32.25;;;16.88;;
44116;SDS011;29781;49.480;8.512;2022-10-13T14:48:08;33.95;;;17.75;;
44116;SDS011;29781;49.480;8.512;2022-10-13T14:50:36;28.45;;;17.45;;
44116;SDS011;29781;49.480;8.512;2022-10-13T14:53:02;26.38;;;17.08;;
44116;SDS011;29781;49.480;8.512;2022-10-13T14:55:27;23.88;;;16.33;;
44116;SDS011;29781;49.480;8.512;2022-10-13T14:57:54;31.58;;;18.35;;
44116;SDS011;29781;49.480;8.512;2022-10-13T15:00:20;25.30;;;17.20;;
44116;SDS011;29781;49.480;8.512;2022-10-13T15:02:46;31.65;;;17.45;;
44116;SDS011;29781;49.480;8.512;2022-10-13T15:05:11;27.00;;;17.27;;
44116;SDS011;29781;49.480;8.512;2022-10-13T15:07:37;26.00;;;16.77;;
44116;SDS011;29781;49.480;8.512;2022-10-13T15:10:03;25.10;;;16.83;;
44116;SDS011;29781;49.480;8.512;2022-10-13T15:12:29;25.80;;;16.48;;
44116;SDS011;29781;49.480;8.512;2022-10-13T15:14:54;32.55;;;17.55;;
44116;SDS011;29781;49.480;8.512;2022-10-13T15:17:20;27.58;;;17.92;;
44116;SDS011;29781;49.480;8.512;2022-10-13T15:19:45;27.85;;;16.92;;
44116;SDS011;29781;49.480;8.512;2022-10-13T15:22:11;30.20;;;17.23;;
44116;SDS011;29781;49.480;8.512;2022-10-13T15:24:37;22.88;;;15.82;;
44116;SDS011;29781;49.480;8.512;2022-10-13T15:27:02;28.58;;;18.08;;
44116;SDS011;29781;49.480;8.512;2022-10-13T15:29:28;24.02;;;15.68;;
44116;SDS011;29781;49.480;8.512;2022-10-13T15:31:56;30.88;;;17.30;;
44116;SDS011;29781;49.480;8.512;2022-10-13T15:34:36;30.50;;;17.85;;
44116;SDS011;29781;49.480;8.512;2022-10-13T15:37:05;35.03;;;17.33;;
44116;SDS011;29781;49.480;8.512;2022-10-13T15:39:31;27.35;;;18.23;;
44116;SDS011;29781;49.480;8.512;2022-10-13T15:41:57;35.88;;;18.25;;
44116;SDS011;29781;49.480;8.512;2022-10-13T15:44:23;29.23;;;16.77;;
44116;SDS011;29781;49.480;8.512;2022-10-13T15:46:49;34.72;;;17.98;;
44116;SDS011;29781;49.480;8.512;2022-10-13T15:49:19;26.45;;;17.08;;
44116;SDS011;29781;49.480;8.512;2022-10-13T15:51:45;28.77;;;18.60;;
44116;SDS011;29781;49.480;8.512;2022-10-13T15:54:11;25.92;;;18.00;;
44116;SDS011;29781;49.480;8.512;2022-10-13T15:56:36;28.58;;;16.88;;
44116;SDS011;29781;49.480;8.512;2022-10-13T15:59:02;31.70;;;18.17;;
44116;SDS011;29781;49.480;8.512;2022-10-13T16:01:28;29.33;;;18.10;;
44116;SDS011;29781;49.480;8.512;2022-10-13T16:03:54;28.42;;;17.77;;
44116;SDS011;29781;49.480;8.512;2022-10-13T16:06:19;27.08;;;18.45;;
44116;SDS011;29781;49.480;8.512;2022-10-13T16:08:46;28.08;;;18.77;;
44116;SDS011;29781;49.480;8.512;2022-10-13T16:11:13;30.88;;;17.23;;
44116;SDS011;29781;49.480;8.512;2022-10-13T16:13:41;28.08;;;17.73;;
44116;SDS011;29781;49.480;8.512;2022-10-13T16:16:10;30.27;;;18.38;;
44116;SDS011;29781;49.480;8.512;2022-10-13T16:18:36;30.50;;;18.35;;
44116;SDS011;29781;49.480;8.512;2022-10-13T16:21:06;32.30;;;18.35;;